ADDS METAR Data INFO
IDs: Format: Raw Decoded Include TAF

Data at: 1950 UTC 14 Aug 2018

KY19 141935Z AUTO VRB05G10KT 10SM SCT110 20/09 A3008 RMK AO2
KY19 141915Z AUTO 07007KT 10SM FEW110 20/09 A3009 RMK AO2 LTG DSNT S
KY19 141855Z AUTO 05007KT 10SM FEW110 20/09 A3010 RMK AO2
KY19 141835Z AUTO 09003G12KT 10SM FEW120 20/09 A3010 RMK AO2
KY19 141815Z AUTO 05007KT 010V070 10SM SCT120 20/09 A3010 RMK AO2
KY19 141755Z AUTO 05005G12KT 10SM BKN120 20/09 A3009 RMK AO2
KY19 141735Z AUTO 03010KT 10SM FEW120 19/08 A3008 RMK AO2
KY19 141715Z AUTO 02011G17KT 10SM CLR 20/09 A3008 RMK AO2
KY19 141655Z AUTO 02011KT 10SM CLR 20/09 A3007 RMK AO2
KY19 141635Z AUTO 05008KT 10SM CLR 19/09 A3009 RMK AO2
KY19 141615Z AUTO 07007KT 10SM CLR 18/09 A3009 RMK AO2
KY19 141555Z AUTO 04005KT 10SM CLR 17/09 A3010 RMK AO2
KY19 141535Z AUTO 06005KT 10SM CLR 17/10 A3010 RMK AO2
KY19 141515Z AUTO 05004KT 10SM CLR 16/10 A3012 RMK AO2
KY19 141455Z AUTO 04005KT 10SM CLR 16/11 A3012 RMK AO2
KY19 141435Z AUTO 04006KT 10SM CLR 15/12 A3011 RMK AO2
KY19 141415Z AUTO 03006KT 10SM CLR 15/13 A3011 RMK AO2
KY19 141355Z AUTO 05005KT 10SM CLR 14/13 A3011 RMK AO2
KY19 141335Z AUTO 36004KT 10SM CLR 13/13 A3011 RMK AO2
KY19 141315Z AUTO 01005KT 10SM CLR 13/13 A3010 RMK AO2
KY19 141255Z AUTO 36005KT 10SM CLR 13/13 A3010 RMK AO2
KY19 141235Z AUTO 01006KT 10SM CLR 12/13 A3009 RMK AO2
KY19 141215Z AUTO 02004KT 10SM CLR 12/12 A3009 RMK AO2
KY19 141155Z AUTO 02006KT 10SM CLR 12/12 A3009 RMK AO2
KY19 141135Z AUTO 01005KT 10SM FEW050 FEW085 12/12 A3009 RMK AO2
KY19 141115Z AUTO 02007KT 10SM BKN055 BKN085 12/12 A3009 RMK AO2
KY19 141055Z AUTO 02006KT 10SM BKN055 OVC090 13/13 A3009 RMK AO2
KY19 141035Z AUTO 02006KT 10SM SCT055 OVC090 13/13 A3009 RMK AO2
KY19 141015Z AUTO 36006KT 10SM FEW055 OVC090 13/13 A3009 RMK AO2
KY19 140955Z AUTO 01004KT 10SM FEW040 SCT055 OVC095 13/13 A3010 RMK AO2
KY19 140935Z AUTO 36006KT 10SM FEW039 BKN055 OVC095 13/13 A3009 RMK AO2
KY19 140915Z AUTO 35006KT 10SM FEW037 BKN050 OVC095 14/14 A3009 RMK AO2
KY19 140855Z AUTO 36007KT 10SM OVC050 13/13 A3009 RMK AO2
KY19 140835Z AUTO 35007KT 10SM OVC050 13/13 A3008 RMK AO2
KY19 140815Z AUTO 35009KT 10SM OVC049 14/14 A3008 RMK AO2
KY19 140755Z AUTO 35008KT 10SM OVC048 14/14 A3007 RMK AO2
KY19 140735Z AUTO 35009KT 10SM BKN046 OVC085 14/14 A3007 RMK AO2
KY19 140715Z AUTO 35010KT 10SM SCT046 SCT050 OVC080 14/14 A3007 RMK AO2
KY19 140655Z AUTO 35010KT 10SM SCT038 BKN048 OVC080 14/14 A3007 RMK AO2
KY19 140635Z AUTO 35008KT 10SM OVC037 14/14 A3008 RMK AO2
KY19 140615Z AUTO 35007KT 10SM BKN038 OVC044 14/14 A3008 RMK AO2
KY19 140555Z AUTO 35007KT 10SM BKN038 BKN045 14/14 A3008 RMK AO2
KY19 140535Z AUTO 35007KT 10SM OVC038 14/14 A3008 RMK AO2
KY19 140515Z AUTO 35008KT 10SM BKN038 BKN046 15/14 A3008 RMK AO2
KY19 140455Z AUTO 35007KT 10SM BKN035 BKN043 15/14 A3007 RMK AO2
KY19 140435Z AUTO 35008KT 10SM SCT033 BKN041 BKN049 15/14 A3006 RMK AO2
KY19 140415Z AUTO 34009KT 10SM BKN029 BKN039 BKN045 15/14 A3006 RMK AO2
KY19 140355Z AUTO 34011KT 10SM BKN028 OVC037 16/14 A3006 RMK AO2
KY19 140335Z AUTO 34012G17KT 10SM FEW028 OVC035 16/14 A3005 RMK AO2
KY19 140315Z AUTO 34014KT 10SM BKN034 BKN041 OVC047 17/14 A3005 RMK AO2
KY19 140255Z AUTO 36016KT 10SM FEW026 SCT033 BKN041 17/14 A3004 RMK AO2
KY19 140235Z AUTO 36014G21KT 10SM SCT026 BKN032 BKN039 17/13 A3004 RMK AO2
KY19 140215Z AUTO 36013G20KT 10SM FEW021 FEW031 18/15 A3005 RMK AO2
KY19 140155Z AUTO 01016KT 10SM CLR 18/16 A3003 RMK AO2
KY19 140135Z AUTO 35014KT 9SM -RA FEW032 SCT050 BKN085 18/16 A3005 RMK AO2
KY19 140115Z AUTO 02013KT 10SM FEW044 SCT055 BKN070 18/16 A3002 RMK AO2
KY19 140055Z AUTO 01013KT 5SM -RA FEW044 SCT050 BKN070 18/16 A3003 RMK AO2
KY19 140035Z AUTO 01015KT 10SM FEW070 21/13 A3003 RMK AO2
KY19 140015Z AUTO 35012G17KT 10SM CLR 21/13 A3004 RMK AO2
KY19 132355Z AUTO 34017KT 10SM CLR 22/14 A3004 RMK AO2
KY19 132335Z AUTO 35013KT 10SM CLR 22/14 A3004 RMK AO2
KY19 132315Z AUTO 35014KT 10SM CLR 22/14 A3004 RMK AO2
KY19 132255Z AUTO 35017KT 10SM CLR 22/14 A3002 RMK AO2
KY19 132235Z AUTO 35016KT 10SM CLR 23/14 A3001 RMK AO2
KY19 132215Z AUTO 36017KT 10SM CLR 23/14 A3000 RMK AO2
KY19 132155Z AUTO 36019KT 10SM CLR 25/13 A3000 RMK AO2
KY19 132135Z AUTO 35018KT 10SM CLR 24/13 A3000 RMK AO2
KY19 132115Z AUTO 35017G25KT 10SM CLR 25/13 A3000 RMK AO2
KY19 132055Z AUTO 35020KT 10SM CLR 26/13 A3000 RMK AO2
KY19 132035Z AUTO 36018G26KT 9SM CLR 27/13 A2999 RMK AO2
KY19 132015Z AUTO 35018G25KT 10SM CLR 27/13 A3000 RMK AO2
KY19 131955Z AUTO 36017G23KT 10SM CLR 26/13 A2998 RMK AO2
KY19 131935Z AUTO 01014G19KT 9SM CLR 24/13 A2998 RMK AO2
KY19 131915Z AUTO 01015G21KT 9SM CLR 25/13 A2998 RMK AO2
KY19 131855Z AUTO 36019G24KT 9SM CLR 25/13 A2998 RMK AO2
KY19 131835Z AUTO 34019KT 10SM CLR 26/14 A2998 RMK AO2
KY19 131815Z AUTO 01019G25KT 10SM CLR 26/14 A2997 RMK AO2
KY19 131755Z AUTO 02018G24KT 9SM CLR 27/14 A2997 RMK AO2
KY19 131735Z AUTO 35021KT 10SM CLR 27/14 A2997 RMK AO2
KY19 131715Z AUTO 01019G25KT 10SM CLR 26/15 A2996 RMK AO2
KY19 131655Z AUTO 01020G25KT 9SM CLR 26/15 A2996 RMK AO2
KY19 131635Z AUTO 01018G23KT 10SM CLR 26/16 A2995 RMK AO2
KY19 131615Z AUTO 35019KT 10SM CLR 25/17 A2994 RMK AO2
KY19 131555Z AUTO 01015KT 10SM CLR 25/17 A2994 RMK AO2
KY19 131535Z AUTO 01014G20KT 10SM CLR 25/17 A2994 RMK AO2
KY19 131515Z AUTO 02013KT 10SM CLR 24/18 A2993 RMK AO2
KY19 131455Z AUTO 03012KT 9SM CLR 23/18 A2992 RMK AO2
KY19 131435Z AUTO 36013KT 9SM CLR 23/18 A2993 RMK AO2
KY19 131415Z AUTO 03013G19KT 9SM CLR 22/17 A2991 RMK AO2
KY19 131355Z AUTO 02014KT 9SM CLR 21/17 A2991 RMK AO2
KY19 131335Z AUTO 36013KT 9SM CLR 21/15 A2991 RMK AO2
KY19 131315Z AUTO 35015KT 9SM CLR 21/14 A2991 RMK AO2
KY19 131255Z AUTO 34011KT 8SM CLR 20/14 A2990 RMK AO2
KY19 131235Z AUTO 34010KT 9SM CLR 19/14 A2989 RMK AO2
KY19 131215Z AUTO 29005KT 8SM CLR 18/14 A2988 RMK AO2
KY19 131155Z AUTO 25005KT 9SM CLR 19/14 A2987 RMK AO2
KY19 131135Z AUTO 25005KT 9SM CLR 19/14 A2987 RMK AO2
KY19 131115Z AUTO 25005KT 10SM FEW047 FEW055 19/14 A2987 RMK AO2
KY19 131055Z AUTO 21007KT 10SM FEW050 FEW055 21/14 A2986 RMK AO2
KY19 131035Z AUTO 20007KT 10SM FEW050 FEW060 22/14 A2986 RMK AO2
KY19 131015Z AUTO 21009KT 10SM FEW050 SCT055 22/14 A2986 RMK AO2
KY19 130955Z AUTO 21010KT 10SM SCT055 23/14 A2985 RMK AO2
KY19 130935Z AUTO 21011KT 10SM FEW048 SCT060 23/14 A2985 RMK AO2
KY19 130915Z AUTO 21011KT 10SM SCT055 SCT065 23/14 A2985 RMK AO2
KY19 130855Z AUTO 19012KT 10SM SCT055 23/14 A2984 RMK AO2
KY19 130835Z AUTO 20009KT 10SM SCT050 BKN060 23/15 A2985 RMK AO2
KY19 130815Z AUTO 19010KT 10SM FEW026 FEW048 SCT055 23/15 A2984 RMK AO2
KY19 130755Z AUTO 18012KT 10SM SCT049 SCT055 23/15 A2984 RMK AO2